Main page
METAR-TAF:

METAR-TAF

Airports :

Sanya Phoenix International Airport

Sanya, China

latitude: 18-18N, longitude: 109-24E, elevation: 27 m

Current weather observation

The report was made 24 minutes ago, at 21:00 UTC
Wind 2 kt from variable directions
Temperature 20°C
Humidity 83%
Pressure 1016 hPa
Visibility 10 km or more
no clouds below 1500 m and no cumulonimbus

METAR: ZJSY 172100Z VRB01MPS CAVOK 20/17 Q1016 NOSIG

Time: 05:24 (21:24 UTC)

Forecast

The report was made 6 hours and 22 minutes ago, at 15:02 UTC
Forecast valid from 17 at 18 UTC to 18 at 18 UTC
Wind 8 kt from the East
Visibility 10 km or more
Few clouds at a height of 2000 ft

TAF: ZJSY 171502Z 1718/1818 09004MPS 9999 FEW020 TX28/1806Z TN19/1721Z

Weather observations and forecasts of more than 4000 airports (METAR and TAF reports).

The available stations are represented by yellow and red dots on the map.

Hover mouse over dot to see the name of the station.

Then click to see weather observations and forecasts.

To change the map : click on the green buttons with a black cross to zoom in, on the green button with a dash to zoom out, or on the green arrows for adjacent maps.


METAR-TAF: